sensor_id;sensor_type;location;lat;lon;timestamp;P1;durP1;ratioP1;P2;durP2;ratioP2
51374;SDS011;37465;52.738;4.752;2024-03-07T00:00:55;44.75;;;24.27;;
51374;SDS011;37465;52.738;4.752;2024-03-07T00:03:24;41.67;;;24.88;;
51374;SDS011;37465;52.738;4.752;2024-03-07T00:05:52;43.63;;;24.70;;
51374;SDS011;37465;52.738;4.752;2024-03-07T00:08:19;46.92;;;26.60;;
51374;SDS011;37465;52.738;4.752;2024-03-07T00:10:47;47.25;;;27.63;;
51374;SDS011;37465;52.738;4.752;2024-03-07T00:13:15;44.17;;;26.30;;
51374;SDS011;37465;52.738;4.752;2024-03-07T00:15:42;44.70;;;26.42;;
51374;SDS011;37465;52.738;4.752;2024-03-07T00:18:10;44.30;;;25.63;;
51374;SDS011;37465;52.738;4.752;2024-03-07T00:20:39;44.15;;;25.02;;
51374;SDS011;37465;52.738;4.752;2024-03-07T00:23:06;48.38;;;25.95;;
51374;SDS011;37465;52.738;4.752;2024-03-07T00:25:35;45.75;;;25.60;;
51374;SDS011;37465;52.738;4.752;2024-03-07T00:28:03;46.10;;;26.15;;
51374;SDS011;37465;52.738;4.752;2024-03-07T00:30:30;44.55;;;26.15;;
51374;SDS011;37465;52.738;4.752;2024-03-07T00:35:27;43.65;;;25.05;;
51374;SDS011;37465;52.738;4.752;2024-03-07T00:37:56;42.25;;;23.67;;
51374;SDS011;37465;52.738;4.752;2024-03-07T00:40:24;40.42;;;24.85;;
51374;SDS011;37465;52.738;4.752;2024-03-07T00:42:51;51.75;;;26.73;;
51374;SDS011;37465;52.738;4.752;2024-03-07T00:45:19;49.97;;;26.60;;
51374;SDS011;37465;52.738;4.752;2024-03-07T00:47:47;45.50;;;26.15;;
51374;SDS011;37465;52.738;4.752;2024-03-07T00:50:15;47.97;;;25.70;;
51374;SDS011;37465;52.738;4.752;2024-03-07T00:52:42;43.30;;;25.75;;
51374;SDS011;37465;52.738;4.752;2024-03-07T00:55:11;44.70;;;25.83;;
51374;SDS011;37465;52.738;4.752;2024-03-07T00:57:39;48.40;;;27.05;;
51374;SDS011;37465;52.738;4.752;2024-03-07T01:00:06;50.00;;;28.90;;
51374;SDS011;37465;52.738;4.752;2024-03-07T01:02:40;49.50;;;28.63;;
51374;SDS011;37465;52.738;4.752;2024-03-07T01:05:10;48.38;;;26.80;;
51374;SDS011;37465;52.738;4.752;2024-03-07T01:10:07;49.35;;;26.13;;
51374;SDS011;37465;52.738;4.752;2024-03-07T01:12:37;49.10;;;26.13;;
51374;SDS011;37465;52.738;4.752;2024-03-07T01:15:04;48.55;;;27.02;;
51374;SDS011;37465;52.738;4.752;2024-03-07T01:17:32;45.08;;;26.50;;
51374;SDS011;37465;52.738;4.752;2024-03-07T01:20:00;46.90;;;27.50;;
51374;SDS011;37465;52.738;4.752;2024-03-07T01:22:30;46.25;;;26.88;;
51374;SDS011;37465;52.738;4.752;2024-03-07T01:24:58;48.42;;;26.52;;
51374;SDS011;37465;52.738;4.752;2024-03-07T01:27:25;49.85;;;27.88;;
51374;SDS011;37465;52.738;4.752;2024-03-07T01:29:54;50.03;;;26.83;;
51374;SDS011;37465;52.738;4.752;2024-03-07T01:32:22;49.13;;;26.45;;
51374;SDS011;37465;52.738;4.752;2024-03-07T01:34:50;50.53;;;27.73;;
51374;SDS011;37465;52.738;4.752;2024-03-07T01:37:17;53.97;;;27.92;;
51374;SDS011;37465;52.738;4.752;2024-03-07T01:39:45;57.28;;;30.35;;
51374;SDS011;37465;52.738;4.752;2024-03-07T01:42:12;52.92;;;29.77;;
51374;SDS011;37465;52.738;4.752;2024-03-07T01:44:40;54.80;;;29.05;;
51374;SDS011;37465;52.738;4.752;2024-03-07T01:49:39;51.88;;;27.00;;
51374;SDS011;37465;52.738;4.752;2024-03-07T01:52:06;52.10;;;27.63;;
51374;SDS011;37465;52.738;4.752;2024-03-07T01:54:34;51.55;;;27.88;;
51374;SDS011;37465;52.738;4.752;2024-03-07T01:57:02;44.13;;;24.95;;
51374;SDS011;37465;52.738;4.752;2024-03-07T01:59:31;44.53;;;26.48;;
51374;SDS011;37465;52.738;4.752;2024-03-07T02:01:59;47.70;;;25.63;;
51374;SDS011;37465;52.738;4.752;2024-03-07T02:04:28;44.08;;;26.30;;
51374;SDS011;37465;52.738;4.752;2024-03-07T02:06:57;46.92;;;25.63;;
51374;SDS011;37465;52.738;4.752;2024-03-07T02:09:25;49.47;;;25.48;;
51374;SDS011;37465;52.738;4.752;2024-03-07T02:11:52;41.17;;;25.58;;
51374;SDS011;37465;52.738;4.752;2024-03-07T02:14:20;46.47;;;25.63;;
51374;SDS011;37465;52.738;4.752;2024-03-07T02:16:48;70.78;;;28.90;;
51374;SDS011;37465;52.738;4.752;2024-03-07T02:19:15;47.22;;;26.65;;
51374;SDS011;37465;52.738;4.752;2024-03-07T02:21:45;46.67;;;26.43;;
51374;SDS011;37465;52.738;4.752;2024-03-07T02:24:13;52.35;;;26.63;;
51374;SDS011;37465;52.738;4.752;2024-03-07T02:26:42;51.97;;;28.42;;
51374;SDS011;37465;52.738;4.752;2024-03-07T02:29:09;51.90;;;27.33;;
51374;SDS011;37465;52.738;4.752;2024-03-07T02:31:37;57.58;;;27.75;;
51374;SDS011;37465;52.738;4.752;2024-03-07T02:34:07;57.13;;;30.50;;
51374;SDS011;37465;52.738;4.752;2024-03-07T02:36:35;56.53;;;29.13;;
51374;SDS011;37465;52.738;4.752;2024-03-07T02:39:04;57.08;;;29.58;;
51374;SDS011;37465;52.738;4.752;2024-03-07T02:41:32;56.05;;;29.90;;
51374;SDS011;37465;52.738;4.752;2024-03-07T02:44:01;56.10;;;29.10;;
51374;SDS011;37465;52.738;4.752;2024-03-07T02:46:29;61.37;;;31.43;;
51374;SDS011;37465;52.738;4.752;2024-03-07T02:48:58;62.90;;;31.42;;
51374;SDS011;37465;52.738;4.752;2024-03-07T02:51:26;58.72;;;29.27;;
51374;SDS011;37465;52.738;4.752;2024-03-07T02:53:54;58.05;;;30.05;;
51374;SDS011;37465;52.738;4.752;2024-03-07T02:56:23;58.72;;;31.73;;
51374;SDS011;37465;52.738;4.752;2024-03-07T02:58:51;54.10;;;31.02;;
51374;SDS011;37465;52.738;4.752;2024-03-07T03:01:19;61.38;;;31.75;;
51374;SDS011;37465;52.738;4.752;2024-03-07T03:03:46;59.90;;;32.08;;
51374;SDS011;37465;52.738;4.752;2024-03-07T03:06:14;61.35;;;32.30;;
51374;SDS011;37465;52.738;4.752;2024-03-07T03:08:41;57.20;;;30.10;;
51374;SDS011;37465;52.738;4.752;2024-03-07T03:11:09;56.85;;;30.73;;
51374;SDS011;37465;52.738;4.752;2024-03-07T03:13:41;62.35;;;32.95;;
51374;SDS011;37465;52.738;4.752;2024-03-07T03:16:09;63.30;;;31.83;;
51374;SDS011;37465;52.738;4.752;2024-03-07T03:18:37;62.70;;;32.42;;
51374;SDS011;37465;52.738;4.752;2024-03-07T03:21:05;78.63;;;35.70;;
51374;SDS011;37465;52.738;4.752;2024-03-07T03:23:32;59.40;;;33.13;;
51374;SDS011;37465;52.738;4.752;2024-03-07T03:26:00;58.05;;;30.90;;
51374;SDS011;37465;52.738;4.752;2024-03-07T03:28:28;61.78;;;32.28;;
51374;SDS011;37465;52.738;4.752;2024-03-07T03:30:57;57.95;;;31.00;;
51374;SDS011;37465;52.738;4.752;2024-03-07T03:33:24;62.08;;;30.90;;
51374;SDS011;37465;52.738;4.752;2024-03-07T03:35:52;68.05;;;34.50;;
51374;SDS011;37465;52.738;4.752;2024-03-07T03:38:21;67.60;;;33.88;;
51374;SDS011;37465;52.738;4.752;2024-03-07T03:40:49;66.72;;;34.08;;
51374;SDS011;37465;52.738;4.752;2024-03-07T03:43:17;68.18;;;34.78;;
51374;SDS011;37465;52.738;4.752;2024-03-07T03:45:44;61.25;;;33.80;;
51374;SDS011;37465;52.738;4.752;2024-03-07T03:48:15;56.35;;;30.33;;
51374;SDS011;37465;52.738;4.752;2024-03-07T03:50:43;58.17;;;29.92;;
51374;SDS011;37465;52.738;4.752;2024-03-07T03:53:12;51.88;;;29.17;;
51374;SDS011;37465;52.738;4.752;2024-03-07T03:55:40;54.35;;;30.63;;
51374;SDS011;37465;52.738;4.752;2024-03-07T03:58:07;59.40;;;31.70;;
51374;SDS011;37465;52.738;4.752;2024-03-07T04:00:35;60.90;;;31.85;;
51374;SDS011;37465;52.738;4.752;2024-03-07T04:03:04;52.22;;;31.10;;
51374;SDS011;37465;52.738;4.752;2024-03-07T04:05:34;59.72;;;31.92;;
51374;SDS011;37465;52.738;4.752;2024-03-07T04:08:02;54.53;;;31.63;;
51374;SDS011;37465;52.738;4.752;2024-03-07T04:10:30;57.95;;;31.88;;
51374;SDS011;37465;52.738;4.752;2024-03-07T04:12:58;58.28;;;32.47;;
51374;SDS011;37465;52.738;4.752;2024-03-07T04:15:26;57.58;;;32.58;;
51374;SDS011;37465;52.738;4.752;2024-03-07T04:17:59;60.08;;;33.50;;
51374;SDS011;37465;52.738;4.752;2024-03-07T04:20:27;54.83;;;31.85;;
51374;SDS011;37465;52.738;4.752;2024-03-07T04:22:56;57.85;;;34.13;;
51374;SDS011;37465;52.738;4.752;2024-03-07T04:25:23;59.08;;;33.72;;
51374;SDS011;37465;52.738;4.752;2024-03-07T04:27:51;59.40;;;34.30;;
51374;SDS011;37465;52.738;4.752;2024-03-07T04:30:18;60.88;;;32.88;;
51374;SDS011;37465;52.738;4.752;2024-03-07T04:32:46;71.22;;;34.83;;
51374;SDS011;37465;52.738;4.752;2024-03-07T04:35:14;57.38;;;33.75;;
51374;SDS011;37465;52.738;4.752;2024-03-07T04:37:45;61.65;;;33.22;;
51374;SDS011;37465;52.738;4.752;2024-03-07T04:40:14;59.10;;;32.63;;
51374;SDS011;37465;52.738;4.752;2024-03-07T04:42:45;61.47;;;34.03;;
51374;SDS011;37465;52.738;4.752;2024-03-07T04:47:42;55.30;;;32.10;;
51374;SDS011;37465;52.738;4.752;2024-03-07T04:50:11;56.00;;;32.33;;
51374;SDS011;37465;52.738;4.752;2024-03-07T04:52:39;67.50;;;34.22;;
51374;SDS011;37465;52.738;4.752;2024-03-07T04:55:07;58.10;;;33.78;;
51374;SDS011;37465;52.738;4.752;2024-03-07T04:57:37;59.15;;;34.30;;
51374;SDS011;37465;52.738;4.752;2024-03-07T05:00:07;56.35;;;32.72;;
51374;SDS011;37465;52.738;4.752;2024-03-07T05:02:39;57.63;;;34.22;;
51374;SDS011;37465;52.738;4.752;2024-03-07T05:05:07;54.38;;;31.73;;
51374;SDS011;37465;52.738;4.752;2024-03-07T05:07:35;55.78;;;33.47;;
51374;SDS011;37465;52.738;4.752;2024-03-07T05:10:03;57.75;;;33.33;;
51374;SDS011;37465;52.738;4.752;2024-03-07T05:12:30;52.15;;;31.85;;
51374;SDS011;37465;52.738;4.752;2024-03-07T05:14:59;55.72;;;31.92;;
51374;SDS011;37465;52.738;4.752;2024-03-07T05:17:27;55.20;;;33.38;;
51374;SDS011;37465;52.738;4.752;2024-03-07T05:19:57;60.65;;;33.08;;
51374;SDS011;37465;52.738;4.752;2024-03-07T05:22:26;58.65;;;32.28;;
51374;SDS011;37465;52.738;4.752;2024-03-07T05:24:56;57.05;;;32.25;;
51374;SDS011;37465;52.738;4.752;2024-03-07T05:27:25;56.80;;;32.33;;
51374;SDS011;37465;52.738;4.752;2024-03-07T05:29:54;50.15;;;30.75;;
51374;SDS011;37465;52.738;4.752;2024-03-07T05:32:24;58.58;;;33.28;;
51374;SDS011;37465;52.738;4.752;2024-03-07T05:34:53;54.60;;;32.88;;
51374;SDS011;37465;52.738;4.752;2024-03-07T05:37:21;51.97;;;32.25;;
51374;SDS011;37465;52.738;4.752;2024-03-07T05:39:49;58.92;;;32.08;;
51374;SDS011;37465;52.738;4.752;2024-03-07T05:42:17;52.97;;;30.65;;
51374;SDS011;37465;52.738;4.752;2024-03-07T05:44:45;51.25;;;29.17;;
51374;SDS011;37465;52.738;4.752;2024-03-07T05:47:12;52.13;;;31.00;;
51374;SDS011;37465;52.738;4.752;2024-03-07T05:49:42;50.17;;;30.25;;
51374;SDS011;37465;52.738;4.752;2024-03-07T05:52:09;46.13;;;29.75;;
51374;SDS011;37465;52.738;4.752;2024-03-07T05:54:37;47.50;;;29.38;;
51374;SDS011;37465;52.738;4.752;2024-03-07T05:57:03;50.17;;;29.33;;
51374;SDS011;37465;52.738;4.752;2024-03-07T05:59:33;47.38;;;28.50;;
51374;SDS011;37465;52.738;4.752;2024-03-07T06:02:00;48.22;;;28.45;;
51374;SDS011;37465;52.738;4.752;2024-03-07T06:04:29;46.85;;;27.77;;
51374;SDS011;37465;52.738;4.752;2024-03-07T06:06:59;50.50;;;29.65;;
51374;SDS011;37465;52.738;4.752;2024-03-07T06:09:27;47.63;;;28.38;;
51374;SDS011;37465;52.738;4.752;2024-03-07T06:11:54;48.75;;;27.92;;
51374;SDS011;37465;52.738;4.752;2024-03-07T06:14:22;50.10;;;29.40;;
51374;SDS011;37465;52.738;4.752;2024-03-07T06:16:51;48.15;;;27.60;;
51374;SDS011;37465;52.738;4.752;2024-03-07T06:19:19;49.90;;;28.55;;
51374;SDS011;37465;52.738;4.752;2024-03-07T06:21:46;58.85;;;30.80;;
51374;SDS011;37465;52.738;4.752;2024-03-07T06:24:15;63.28;;;32.70;;
51374;SDS011;37465;52.738;4.752;2024-03-07T06:26:44;58.15;;;30.75;;
51374;SDS011;37465;52.738;4.752;2024-03-07T06:29:15;53.28;;;28.98;;
51374;SDS011;37465;52.738;4.752;2024-03-07T06:31:43;55.08;;;30.42;;
51374;SDS011;37465;52.738;4.752;2024-03-07T06:34:12;51.05;;;28.67;;
51374;SDS011;37465;52.738;4.752;2024-03-07T06:36:40;50.97;;;30.20;;
51374;SDS011;37465;52.738;4.752;2024-03-07T06:39:07;51.00;;;29.35;;
51374;SDS011;37465;52.738;4.752;2024-03-07T06:41:38;50.65;;;27.77;;
51374;SDS011;37465;52.738;4.752;2024-03-07T06:44:06;52.53;;;29.48;;
51374;SDS011;37465;52.738;4.752;2024-03-07T06:46:35;49.95;;;29.02;;
51374;SDS011;37465;52.738;4.752;2024-03-07T06:49:11;53.47;;;30.45;;
51374;SDS011;37465;52.738;4.752;2024-03-07T06:51:39;50.38;;;29.50;;
51374;SDS011;37465;52.738;4.752;2024-03-07T06:54:06;63.50;;;32.20;;
51374;SDS011;37465;52.738;4.752;2024-03-07T06:56:34;64.60;;;33.08;;
51374;SDS011;37465;52.738;4.752;2024-03-07T06:59:02;53.28;;;30.55;;
51374;SDS011;37465;52.738;4.752;2024-03-07T07:01:31;53.17;;;29.13;;
51374;SDS011;37465;52.738;4.752;2024-03-07T07:03:58;50.67;;;29.08;;
51374;SDS011;37465;52.738;4.752;2024-03-07T07:06:30;56.80;;;31.25;;
51374;SDS011;37465;52.738;4.752;2024-03-07T07:08:59;53.60;;;30.48;;
51374;SDS011;37465;52.738;4.752;2024-03-07T07:11:29;52.20;;;30.40;;
51374;SDS011;37465;52.738;4.752;2024-03-07T07:14:00;55.22;;;29.95;;
51374;SDS011;37465;52.738;4.752;2024-03-07T07:16:29;52.40;;;29.27;;
51374;SDS011;37465;52.738;4.752;2024-03-07T07:18:57;57.67;;;31.70;;
51374;SDS011;37465;52.738;4.752;2024-03-07T07:21:25;50.90;;;29.00;;
51374;SDS011;37465;52.738;4.752;2024-03-07T07:23:54;56.97;;;32.00;;
51374;SDS011;37465;52.738;4.752;2024-03-07T07:26:21;51.75;;;28.77;;
51374;SDS011;37465;52.738;4.752;2024-03-07T07:28:49;51.30;;;29.50;;
51374;SDS011;37465;52.738;4.752;2024-03-07T07:31:20;59.50;;;32.92;;
51374;SDS011;37465;52.738;4.752;2024-03-07T07:33:47;52.35;;;31.75;;
51374;SDS011;37465;52.738;4.752;2024-03-07T07:36:15;47.63;;;29.55;;
51374;SDS011;37465;52.738;4.752;2024-03-07T07:38:44;48.90;;;28.33;;
51374;SDS011;37465;52.738;4.752;2024-03-07T07:41:13;42.38;;;26.77;;
51374;SDS011;37465;52.738;4.752;2024-03-07T07:43:40;43.15;;;28.50;;
51374;SDS011;37465;52.738;4.752;2024-03-07T07:46:09;43.77;;;27.03;;
51374;SDS011;37465;52.738;4.752;2024-03-07T07:48:37;46.72;;;27.88;;
51374;SDS011;37465;52.738;4.752;2024-03-07T07:51:05;44.55;;;28.00;;
51374;SDS011;37465;52.738;4.752;2024-03-07T07:53:33;43.03;;;27.45;;
51374;SDS011;37465;52.738;4.752;2024-03-07T07:56:01;38.55;;;24.45;;
51374;SDS011;37465;52.738;4.752;2024-03-07T07:58:30;38.00;;;25.23;;
51374;SDS011;37465;52.738;4.752;2024-03-07T08:00:58;37.28;;;25.48;;
51374;SDS011;37465;52.738;4.752;2024-03-07T08:03:25;37.10;;;24.63;;
51374;SDS011;37465;52.738;4.752;2024-03-07T08:05:53;35.00;;;23.40;;
51374;SDS011;37465;52.738;4.752;2024-03-07T08:08:21;34.33;;;25.23;;
51374;SDS011;37465;52.738;4.752;2024-03-07T08:10:48;33.15;;;23.52;;
51374;SDS011;37465;52.738;4.752;2024-03-07T08:13:16;29.92;;;22.20;;
51374;SDS011;37465;52.738;4.752;2024-03-07T08:15:45;33.22;;;22.60;;
51374;SDS011;37465;52.738;4.752;2024-03-07T08:18:13;31.95;;;21.17;;
51374;SDS011;37465;52.738;4.752;2024-03-07T08:20:40;33.25;;;23.08;;
51374;SDS011;37465;52.738;4.752;2024-03-07T08:23:09;31.40;;;21.65;;
51374;SDS011;37465;52.738;4.752;2024-03-07T08:25:37;27.58;;;20.13;;
51374;SDS011;37465;52.738;4.752;2024-03-07T08:28:06;27.00;;;20.15;;
51374;SDS011;37465;52.738;4.752;2024-03-07T08:30:34;27.80;;;19.88;;
51374;SDS011;37465;52.738;4.752;2024-03-07T08:33:03;28.50;;;21.20;;
51374;SDS011;37465;52.738;4.752;2024-03-07T08:35:33;26.90;;;19.73;;
51374;SDS011;37465;52.738;4.752;2024-03-07T08:38:01;26.13;;;18.67;;
51374;SDS011;37465;52.738;4.752;2024-03-07T08:40:29;25.95;;;18.83;;
51374;SDS011;37465;52.738;4.752;2024-03-07T08:43:00;26.48;;;18.10;;
51374;SDS011;37465;52.738;4.752;2024-03-07T08:45:28;26.35;;;19.17;;
51374;SDS011;37465;52.738;4.752;2024-03-07T08:47:59;24.20;;;17.90;;
51374;SDS011;37465;52.738;4.752;2024-03-07T08:50:28;23.83;;;17.73;;
51374;SDS011;37465;52.738;4.752;2024-03-07T08:52:56;25.55;;;17.85;;
51374;SDS011;37465;52.738;4.752;2024-03-07T08:55:24;22.80;;;16.92;;
51374;SDS011;37465;52.738;4.752;2024-03-07T08:57:52;22.88;;;17.48;;
51374;SDS011;37465;52.738;4.752;2024-03-07T09:00:20;22.55;;;17.58;;
51374;SDS011;37465;52.738;4.752;2024-03-07T09:02:52;21.38;;;16.38;;
51374;SDS011;37465;52.738;4.752;2024-03-07T09:05:21;22.35;;;16.25;;
51374;SDS011;37465;52.738;4.752;2024-03-07T09:07:52;22.42;;;16.33;;
51374;SDS011;37465;52.738;4.752;2024-03-07T09:10:19;21.00;;;15.88;;
51374;SDS011;37465;52.738;4.752;2024-03-07T09:12:49;20.67;;;15.85;;
51374;SDS011;37465;52.738;4.752;2024-03-07T09:15:18;19.95;;;15.73;;
51374;SDS011;37465;52.738;4.752;2024-03-07T09:17:49;19.08;;;14.57;;
51374;SDS011;37465;52.738;4.752;2024-03-07T09:20:16;20.90;;;16.02;;
51374;SDS011;37465;52.738;4.752;2024-03-07T09:22:45;19.67;;;15.85;;
51374;SDS011;37465;52.738;4.752;2024-03-07T09:25:16;22.77;;;15.50;;
51374;SDS011;37465;52.738;4.752;2024-03-07T09:27:45;21.95;;;16.77;;
51374;SDS011;37465;52.738;4.752;2024-03-07T09:30:13;21.15;;;15.50;;
51374;SDS011;37465;52.738;4.752;2024-03-07T09:32:45;19.10;;;14.73;;
51374;SDS011;37465;52.738;4.752;2024-03-07T09:35:13;18.48;;;14.43;;
51374;SDS011;37465;52.738;4.752;2024-03-07T09:37:42;19.38;;;15.68;;
51374;SDS011;37465;52.738;4.752;2024-03-07T09:40:11;20.77;;;15.82;;
51374;SDS011;37465;52.738;4.752;2024-03-07T09:42:43;20.00;;;15.32;;
51374;SDS011;37465;52.738;4.752;2024-03-07T09:45:13;20.63;;;14.98;;
51374;SDS011;37465;52.738;4.752;2024-03-07T09:47:42;17.95;;;14.63;;
51374;SDS011;37465;52.738;4.752;2024-03-07T09:50:11;18.00;;;14.07;;
51374;SDS011;37465;52.738;4.752;2024-03-07T09:52:38;18.00;;;14.80;;
51374;SDS011;37465;52.738;4.752;2024-03-07T09:55:07;19.08;;;15.23;;
51374;SDS011;37465;52.738;4.752;2024-03-07T09:57:35;17.17;;;14.25;;
51374;SDS011;37465;52.738;4.752;2024-03-07T10:00:05;20.05;;;14.70;;
51374;SDS011;37465;52.738;4.752;2024-03-07T10:02:33;20.65;;;15.40;;
51374;SDS011;37465;52.738;4.752;2024-03-07T10:05:01;17.52;;;14.80;;
51374;SDS011;37465;52.738;4.752;2024-03-07T10:07:29;20.05;;;15.77;;
51374;SDS011;37465;52.738;4.752;2024-03-07T10:09:57;19.88;;;15.10;;
51374;SDS011;37465;52.738;4.752;2024-03-07T10:12:26;17.70;;;15.07;;
51374;SDS011;37465;52.738;4.752;2024-03-07T10:14:55;17.48;;;14.77;;
51374;SDS011;37465;52.738;4.752;2024-03-07T10:17:24;18.10;;;14.98;;
51374;SDS011;37465;52.738;4.752;2024-03-07T10:19:53;19.63;;;15.10;;
51374;SDS011;37465;52.738;4.752;2024-03-07T10:22:21;21.42;;;15.30;;
51374;SDS011;37465;52.738;4.752;2024-03-07T10:24:49;17.40;;;14.73;;
51374;SDS011;37465;52.738;4.752;2024-03-07T10:27:17;18.05;;;14.38;;
51374;SDS011;37465;52.738;4.752;2024-03-07T10:29:45;17.20;;;14.90;;
51374;SDS011;37465;52.738;4.752;2024-03-07T10:32:13;17.80;;;14.05;;
51374;SDS011;37465;52.738;4.752;2024-03-07T10:34:43;17.58;;;15.23;;
51374;SDS011;37465;52.738;4.752;2024-03-07T10:37:12;16.52;;;13.63;;
51374;SDS011;37465;52.738;4.752;2024-03-07T10:39:43;17.83;;;14.65;;
51374;SDS011;37465;52.738;4.752;2024-03-07T10:42:12;16.15;;;14.23;;
51374;SDS011;37465;52.738;4.752;2024-03-07T10:44:43;16.58;;;14.38;;
51374;SDS011;37465;52.738;4.752;2024-03-07T10:47:11;17.83;;;14.93;;
51374;SDS011;37465;52.738;4.752;2024-03-07T10:49:46;15.13;;;13.18;;
51374;SDS011;37465;52.738;4.752;2024-03-07T10:52:17;15.63;;;13.40;;
51374;SDS011;37465;52.738;4.752;2024-03-07T10:54:55;16.23;;;12.70;;
51374;SDS011;37465;52.738;4.752;2024-03-07T10:57:41;15.45;;;12.02;;
51374;SDS011;37465;52.738;4.752;2024-03-07T11:00:15;16.45;;;12.73;;
51374;SDS011;37465;52.738;4.752;2024-03-07T11:02:56;14.80;;;12.68;;
51374;SDS011;37465;52.738;4.752;2024-03-07T11:05:26;15.65;;;14.00;;
51374;SDS011;37465;52.738;4.752;2024-03-07T11:07:57;14.55;;;13.15;;
51374;SDS011;37465;52.738;4.752;2024-03-07T11:10:25;14.65;;;13.15;;
51374;SDS011;37465;52.738;4.752;2024-03-07T11:12:53;14.90;;;13.40;;
51374;SDS011;37465;52.738;4.752;2024-03-07T11:15:21;14.40;;;13.00;;
51374;SDS011;37465;52.738;4.752;2024-03-07T11:17:52;13.93;;;12.52;;
51374;SDS011;37465;52.738;4.752;2024-03-07T11:20:21;14.52;;;13.02;;
51374;SDS011;37465;52.738;4.752;2024-03-07T11:22:51;15.13;;;13.63;;
51374;SDS011;37465;52.738;4.752;2024-03-07T11:25:20;16.33;;;14.63;;
51374;SDS011;37465;52.738;4.752;2024-03-07T11:27:52;15.68;;;14.07;;
51374;SDS011;37465;52.738;4.752;2024-03-07T11:30:20;16.43;;;14.77;;
51374;SDS011;37465;52.738;4.752;2024-03-07T11:32:48;15.98;;;14.02;;
51374;SDS011;37465;52.738;4.752;2024-03-07T11:35:20;16.48;;;14.73;;
51374;SDS011;37465;52.738;4.752;2024-03-07T11:37:57;16.35;;;14.65;;
51374;SDS011;37465;52.738;4.752;2024-03-07T11:40:43;16.27;;;14.57;;
51374;SDS011;37465;52.738;4.752;2024-03-07T11:43:14;16.40;;;14.70;;
51374;SDS011;37465;52.738;4.752;2024-03-07T11:45:41;15.67;;;14.07;;
51374;SDS011;37465;52.738;4.752;2024-03-07T11:48:18;15.55;;;13.95;;
51374;SDS011;37465;52.738;4.752;2024-03-07T11:50:48;15.80;;;14.20;;
51374;SDS011;37465;52.738;4.752;2024-03-07T11:53:18;16.23;;;14.60;;
51374;SDS011;37465;52.738;4.752;2024-03-07T11:55:45;17.02;;;15.07;;
51374;SDS011;37465;52.738;4.752;2024-03-07T11:58:15;17.30;;;15.50;;
51374;SDS011;37465;52.738;4.752;2024-03-07T12:00:44;16.93;;;15.17;;
51374;SDS011;37465;52.738;4.752;2024-03-07T12:03:12;17.13;;;15.32;;
51374;SDS011;37465;52.738;4.752;2024-03-07T12:05:41;16.75;;;14.95;;
51374;SDS011;37465;52.738;4.752;2024-03-07T12:08:10;17.70;;;13.82;;
51374;SDS011;37465;52.738;4.752;2024-03-07T12:10:39;16.85;;;13.95;;
51374;SDS011;37465;52.738;4.752;2024-03-07T12:13:14;16.15;;;14.38;;
51374;SDS011;37465;52.738;4.752;2024-03-07T12:15:43;17.00;;;14.05;;
51374;SDS011;37465;52.738;4.752;2024-03-07T12:18:10;17.83;;;14.63;;
51374;SDS011;37465;52.738;4.752;2024-03-07T12:20:41;16.33;;;13.95;;
51374;SDS011;37465;52.738;4.752;2024-03-07T12:23:13;17.35;;;14.65;;
51374;SDS011;37465;52.738;4.752;2024-03-07T12:25:43;18.05;;;16.15;;
51374;SDS011;37465;52.738;4.752;2024-03-07T12:28:12;17.38;;;15.07;;
51374;SDS011;37465;52.738;4.752;2024-03-07T12:30:50;18.20;;;16.40;;
51374;SDS011;37465;52.738;4.752;2024-03-07T12:33:18;18.92;;;17.02;;
51374;SDS011;37465;52.738;4.752;2024-03-07T12:35:46;19.60;;;17.60;;
51374;SDS011;37465;52.738;4.752;2024-03-07T12:38:16;19.98;;;17.88;;
51374;SDS011;37465;52.738;4.752;2024-03-07T12:40:46;19.52;;;17.52;;
51374;SDS011;37465;52.738;4.752;2024-03-07T12:43:15;19.75;;;17.58;;
51374;SDS011;37465;52.738;4.752;2024-03-07T12:45:44;19.17;;;17.25;;
51374;SDS011;37465;52.738;4.752;2024-03-07T12:48:11;18.98;;;17.15;;
51374;SDS011;37465;52.738;4.752;2024-03-07T12:50:41;17.90;;;16.00;;
51374;SDS011;37465;52.738;4.752;2024-03-07T12:53:08;19.45;;;15.80;;
51374;SDS011;37465;52.738;4.752;2024-03-07T12:55:38;20.92;;;16.38;;
51374;SDS011;37465;52.738;4.752;2024-03-07T12:58:09;17.88;;;15.98;;
51374;SDS011;37465;52.738;4.752;2024-03-07T13:00:38;19.58;;;16.42;;
51374;SDS011;37465;52.738;4.752;2024-03-07T13:03:07;19.70;;;16.80;;
51374;SDS011;37465;52.738;4.752;2024-03-07T13:05:35;18.70;;;16.70;;
51374;SDS011;37465;52.738;4.752;2024-03-07T13:08:06;19.83;;;17.40;;
51374;SDS011;37465;52.738;4.752;2024-03-07T13:10:38;20.13;;;17.42;;
51374;SDS011;37465;52.738;4.752;2024-03-07T13:13:05;18.02;;;15.40;;
51374;SDS011;37465;52.738;4.752;2024-03-07T13:15:34;20.60;;;16.65;;
51374;SDS011;37465;52.738;4.752;2024-03-07T13:18:03;18.42;;;16.48;;
51374;SDS011;37465;52.738;4.752;2024-03-07T13:20:31;18.58;;;16.05;;
51374;SDS011;37465;52.738;4.752;2024-03-07T13:22:59;17.75;;;15.38;;
51374;SDS011;37465;52.738;4.752;2024-03-07T13:25:28;17.70;;;15.57;;
51374;SDS011;37465;52.738;4.752;2024-03-07T13:28:00;18.55;;;15.07;;
51374;SDS011;37465;52.738;4.752;2024-03-07T13:30:29;22.05;;;16.95;;
51374;SDS011;37465;52.738;4.752;2024-03-07T13:32:58;18.13;;;15.88;;
51374;SDS011;37465;52.738;4.752;2024-03-07T13:35:26;17.15;;;15.35;;
51374;SDS011;37465;52.738;4.752;2024-03-07T13:37:54;18.90;;;15.73;;
51374;SDS011;37465;52.738;4.752;2024-03-07T13:40:22;20.02;;;16.80;;
51374;SDS011;37465;52.738;4.752;2024-03-07T13:42:53;18.77;;;16.77;;
51374;SDS011;37465;52.738;4.752;2024-03-07T13:45:22;18.67;;;16.30;;
51374;SDS011;37465;52.738;4.752;2024-03-07T13:47:50;19.20;;;16.48;;
51374;SDS011;37465;52.738;4.752;2024-03-07T13:50:20;18.95;;;16.52;;
51374;SDS011;37465;52.738;4.752;2024-03-07T13:53:10;20.67;;;16.02;;
51374;SDS011;37465;52.738;4.752;2024-03-07T13:55:41;18.15;;;15.80;;
51374;SDS011;37465;52.738;4.752;2024-03-07T13:58:15;20.10;;;15.90;;
51374;SDS011;37465;52.738;4.752;2024-03-07T14:00:45;18.25;;;15.95;;
51374;SDS011;37465;52.738;4.752;2024-03-07T14:03:31;18.77;;;15.95;;
51374;SDS011;37465;52.738;4.752;2024-03-07T14:06:08;18.58;;;15.27;;
51374;SDS011;37465;52.738;4.752;2024-03-07T14:14:11;17.73;;;15.20;;
51374;SDS011;37465;52.738;4.752;2024-03-07T14:17:03;18.63;;;16.63;;
51374;SDS011;37465;52.738;4.752;2024-03-07T14:22:38;16.55;;;14.73;;
51374;SDS011;37465;52.738;4.752;2024-03-07T14:25:11;16.50;;;14.73;;
51374;SDS011;37465;52.738;4.752;2024-03-07T14:27:50;16.00;;;13.65;;
51374;SDS011;37465;52.738;4.752;2024-03-07T14:30:24;16.38;;;14.68;;
51374;SDS011;37465;52.738;4.752;2024-03-07T14:32:56;16.90;;;14.18;;
51374;SDS011;37465;52.738;4.752;2024-03-07T14:35:30;14.63;;;13.13;;
51374;SDS011;37465;52.738;4.752;2024-03-07T14:38:06;14.50;;;12.43;;
51374;SDS011;37465;52.738;4.752;2024-03-07T14:40:33;15.15;;;13.63;;
51374;SDS011;37465;52.738;4.752;2024-03-07T14:43:01;16.63;;;14.80;;
51374;SDS011;37465;52.738;4.752;2024-03-07T14:45:32;18.48;;;15.45;;
51374;SDS011;37465;52.738;4.752;2024-03-07T14:48:01;16.70;;;14.05;;
51374;SDS011;37465;52.738;4.752;2024-03-07T14:50:29;17.83;;;14.35;;